sensor_id;sensor_type;location;lat;lon;timestamp;temperature;humidity
4874;DHT22;2451;49.970;9.068;2024-01-30T00:01:48;3.10;99.90
4874;DHT22;2451;49.970;9.068;2024-01-30T00:04:17;3.10;99.90
4874;DHT22;2451;49.970;9.068;2024-01-30T00:06:43;3.10;99.90
4874;DHT22;2451;49.970;9.068;2024-01-30T00:09:09;3.10;99.90
4874;DHT22;2451;49.970;9.068;2024-01-30T00:11:39;3.10;99.90
4874;DHT22;2451;49.970;9.068;2024-01-30T00:14:05;3.10;99.90
4874;DHT22;2451;49.970;9.068;2024-01-30T00:16:30;3.00;99.90
4874;DHT22;2451;49.970;9.068;2024-01-30T00:18:56;3.00;99.90
4874;DHT22;2451;49.970;9.068;2024-01-30T00:21:22;3.00;99.90
4874;DHT22;2451;49.970;9.068;2024-01-30T00:23:49;3.00;99.90
4874;DHT22;2451;49.970;9.068;2024-01-30T00:26:17;3.00;99.90
4874;DHT22;2451;49.970;9.068;2024-01-30T00:28:43;2.90;99.90
4874;DHT22;2451;49.970;9.068;2024-01-30T00:31:09;2.90;99.90
4874;DHT22;2451;49.970;9.068;2024-01-30T00:33:40;2.90;99.90
4874;DHT22;2451;49.970;9.068;2024-01-30T00:36:07;2.90;99.90
4874;DHT22;2451;49.970;9.068;2024-01-30T00:38:33;2.90;99.90
4874;DHT22;2451;49.970;9.068;2024-01-30T00:40:58;2.80;99.90
4874;DHT22;2451;49.970;9.068;2024-01-30T00:43:27;2.80;99.90
4874;DHT22;2451;49.970;9.068;2024-01-30T00:45:53;2.80;99.90
4874;DHT22;2451;49.970;9.068;2024-01-30T00:48:19;2.70;99.90
4874;DHT22;2451;49.970;9.068;2024-01-30T00:50:45;2.70;99.90
4874;DHT22;2451;49.970;9.068;2024-01-30T00:53:11;2.60;99.90
4874;DHT22;2451;49.970;9.068;2024-01-30T00:55:36;2.60;99.90
4874;DHT22;2451;49.970;9.068;2024-01-30T00:58:02;2.60;99.90
4874;DHT22;2451;49.970;9.068;2024-01-30T01:00:28;2.70;99.90
4874;DHT22;2451;49.970;9.068;2024-01-30T01:03:00;2.70;99.90
4874;DHT22;2451;49.970;9.068;2024-01-30T01:05:26;2.70;99.90
4874;DHT22;2451;49.970;9.068;2024-01-30T01:07:52;2.70;99.90
4874;DHT22;2451;49.970;9.068;2024-01-30T01:10:18;2.70;99.90
4874;DHT22;2451;49.970;9.068;2024-01-30T01:12:47;2.70;99.90
4874;DHT22;2451;49.970;9.068;2024-01-30T01:15:13;2.70;99.90
4874;DHT22;2451;49.970;9.068;2024-01-30T01:17:39;2.70;99.90
4874;DHT22;2451;49.970;9.068;2024-01-30T01:20:06;2.60;99.90
4874;DHT22;2451;49.970;9.068;2024-01-30T01:22:32;2.60;99.90
4874;DHT22;2451;49.970;9.068;2024-01-30T01:24:58;2.50;99.90
4874;DHT22;2451;49.970;9.068;2024-01-30T01:27:24;2.50;99.90
4874;DHT22;2451;49.970;9.068;2024-01-30T01:29:50;2.50;99.90
4874;DHT22;2451;49.970;9.068;2024-01-30T01:32:16;2.50;99.90
4874;DHT22;2451;49.970;9.068;2024-01-30T01:34:41;2.50;99.90
4874;DHT22;2451;49.970;9.068;2024-01-30T01:37:07;2.50;99.90
4874;DHT22;2451;49.970;9.068;2024-01-30T01:39:33;2.50;99.90
4874;DHT22;2451;49.970;9.068;2024-01-30T01:41:58;2.50;99.90
4874;DHT22;2451;49.970;9.068;2024-01-30T01:44:24;2.50;99.90
4874;DHT22;2451;49.970;9.068;2024-01-30T01:46:54;2.50;99.90
4874;DHT22;2451;49.970;9.068;2024-01-30T01:49:20;2.50;99.90
4874;DHT22;2451;49.970;9.068;2024-01-30T01:51:47;2.50;99.90
4874;DHT22;2451;49.970;9.068;2024-01-30T01:54:16;2.40;99.90
4874;DHT22;2451;49.970;9.068;2024-01-30T01:56:42;2.40;99.90
4874;DHT22;2451;49.970;9.068;2024-01-30T01:59:09;2.40;99.90
4874;DHT22;2451;49.970;9.068;2024-01-30T02:01:37;2.40;99.90
4874;DHT22;2451;49.970;9.068;2024-01-30T02:04:02;2.40;99.90
4874;DHT22;2451;49.970;9.068;2024-01-30T02:06:28;2.30;99.90
4874;DHT22;2451;49.970;9.068;2024-01-30T02:08:54;2.40;99.90
4874;DHT22;2451;49.970;9.068;2024-01-30T02:11:21;2.30;99.90
4874;DHT22;2451;49.970;9.068;2024-01-30T02:13:47;2.30;99.90
4874;DHT22;2451;49.970;9.068;2024-01-30T02:16:13;2.30;99.90
4874;DHT22;2451;49.970;9.068;2024-01-30T02:18:38;2.30;99.90
4874;DHT22;2451;49.970;9.068;2024-01-30T02:21:08;2.30;99.90
4874;DHT22;2451;49.970;9.068;2024-01-30T02:23:34;2.30;99.90
4874;DHT22;2451;49.970;9.068;2024-01-30T02:26:00;2.30;99.90
4874;DHT22;2451;49.970;9.068;2024-01-30T02:28:25;2.30;99.90
4874;DHT22;2451;49.970;9.068;2024-01-30T02:30:51;2.20;99.90
4874;DHT22;2451;49.970;9.068;2024-01-30T02:33:17;2.20;99.90
4874;DHT22;2451;49.970;9.068;2024-01-30T02:35:42;2.20;99.90
4874;DHT22;2451;49.970;9.068;2024-01-30T02:38:08;2.20;99.90
4874;DHT22;2451;49.970;9.068;2024-01-30T02:40:34;2.20;99.90
4874;DHT22;2451;49.970;9.068;2024-01-30T02:43:01;2.20;99.90
4874;DHT22;2451;49.970;9.068;2024-01-30T02:45:26;2.10;99.90
4874;DHT22;2451;49.970;9.068;2024-01-30T02:47:52;2.10;99.90
4874;DHT22;2451;49.970;9.068;2024-01-30T02:50:18;2.10;99.90
4874;DHT22;2451;49.970;9.068;2024-01-30T02:52:44;2.10;99.90
4874;DHT22;2451;49.970;9.068;2024-01-30T02:55:10;2.10;99.90
4874;DHT22;2451;49.970;9.068;2024-01-30T02:57:35;2.10;99.90
4874;DHT22;2451;49.970;9.068;2024-01-30T03:00:01;2.10;99.90
4874;DHT22;2451;49.970;9.068;2024-01-30T03:02:28;2.10;99.90
4874;DHT22;2451;49.970;9.068;2024-01-30T03:04:56;2.10;99.90
4874;DHT22;2451;49.970;9.068;2024-01-30T03:07:22;2.00;99.90
4874;DHT22;2451;49.970;9.068;2024-01-30T03:09:47;2.00;99.90
4874;DHT22;2451;49.970;9.068;2024-01-30T03:12:13;1.90;99.90
4874;DHT22;2451;49.970;9.068;2024-01-30T03:14:39;1.80;99.90
4874;DHT22;2451;49.970;9.068;2024-01-30T03:17:05;1.80;99.90
4874;DHT22;2451;49.970;9.068;2024-01-30T03:19:30;1.90;99.90
4874;DHT22;2451;49.970;9.068;2024-01-30T03:21:56;1.90;99.90
4874;DHT22;2451;49.970;9.068;2024-01-30T03:24:21;1.80;99.90
4874;DHT22;2451;49.970;9.068;2024-01-30T03:26:47;1.80;99.90
4874;DHT22;2451;49.970;9.068;2024-01-30T03:29:13;1.80;99.90
4874;DHT22;2451;49.970;9.068;2024-01-30T03:31:39;1.90;99.90
4874;DHT22;2451;49.970;9.068;2024-01-30T03:34:07;1.90;99.90
4874;DHT22;2451;49.970;9.068;2024-01-30T03:36:33;1.90;99.90
4874;DHT22;2451;49.970;9.068;2024-01-30T03:39:00;1.90;99.90
4874;DHT22;2451;49.970;9.068;2024-01-30T03:41:25;1.90;99.90
4874;DHT22;2451;49.970;9.068;2024-01-30T03:43:51;1.90;99.90
4874;DHT22;2451;49.970;9.068;2024-01-30T03:46:16;1.90;99.90
4874;DHT22;2451;49.970;9.068;2024-01-30T03:48:42;1.80;99.90
4874;DHT22;2451;49.970;9.068;2024-01-30T03:51:08;1.80;99.90
4874;DHT22;2451;49.970;9.068;2024-01-30T03:53:34;1.80;99.90
4874;DHT22;2451;49.970;9.068;2024-01-30T03:56:00;1.80;99.90
4874;DHT22;2451;49.970;9.068;2024-01-30T03:58:26;1.80;99.90
4874;DHT22;2451;49.970;9.068;2024-01-30T04:00:52;1.70;99.90
4874;DHT22;2451;49.970;9.068;2024-01-30T04:03:17;1.70;99.90
4874;DHT22;2451;49.970;9.068;2024-01-30T04:05:43;1.70;99.90
4874;DHT22;2451;49.970;9.068;2024-01-30T04:08:12;1.70;99.90
4874;DHT22;2451;49.970;9.068;2024-01-30T04:10:37;1.70;99.90
4874;DHT22;2451;49.970;9.068;2024-01-30T04:13:03;1.60;99.90
4874;DHT22;2451;49.970;9.068;2024-01-30T04:15:29;1.70;99.90
4874;DHT22;2451;49.970;9.068;2024-01-30T04:17:57;1.70;99.90
4874;DHT22;2451;49.970;9.068;2024-01-30T04:20:24;1.70;99.90
4874;DHT22;2451;49.970;9.068;2024-01-30T04:22:50;1.70;99.90
4874;DHT22;2451;49.970;9.068;2024-01-30T04:25:15;1.60;99.90
4874;DHT22;2451;49.970;9.068;2024-01-30T04:27:41;1.60;99.90
4874;DHT22;2451;49.970;9.068;2024-01-30T04:30:07;1.60;99.90
4874;DHT22;2451;49.970;9.068;2024-01-30T04:32:33;1.60;99.90
4874;DHT22;2451;49.970;9.068;2024-01-30T04:34:58;1.60;99.90
4874;DHT22;2451;49.970;9.068;2024-01-30T04:37:24;1.60;99.90
4874;DHT22;2451;49.970;9.068;2024-01-30T04:39:50;1.50;99.90
4874;DHT22;2451;49.970;9.068;2024-01-30T04:42:16;1.50;99.90
4874;DHT22;2451;49.970;9.068;2024-01-30T04:44:42;1.50;99.90
4874;DHT22;2451;49.970;9.068;2024-01-30T04:47:07;1.50;99.90
4874;DHT22;2451;49.970;9.068;2024-01-30T04:49:34;1.50;99.90
4874;DHT22;2451;49.970;9.068;2024-01-30T04:52:00;1.50;99.90
4874;DHT22;2451;49.970;9.068;2024-01-30T04:54:26;1.50;99.90
4874;DHT22;2451;49.970;9.068;2024-01-30T04:56:51;1.50;99.90
4874;DHT22;2451;49.970;9.068;2024-01-30T04:59:17;1.60;99.90
4874;DHT22;2451;49.970;9.068;2024-01-30T05:01:42;1.60;99.90
4874;DHT22;2451;49.970;9.068;2024-01-30T05:04:08;1.60;99.90
4874;DHT22;2451;49.970;9.068;2024-01-30T05:06:34;1.60;99.90
4874;DHT22;2451;49.970;9.068;2024-01-30T05:09:03;1.50;99.90
4874;DHT22;2451;49.970;9.068;2024-01-30T05:11:36;1.60;99.90
4874;DHT22;2451;49.970;9.068;2024-01-30T05:14:02;1.60;99.90
4874;DHT22;2451;49.970;9.068;2024-01-30T05:16:27;1.60;99.90
4874;DHT22;2451;49.970;9.068;2024-01-30T05:18:53;1.60;99.90
4874;DHT22;2451;49.970;9.068;2024-01-30T05:21:18;1.60;99.90
4874;DHT22;2451;49.970;9.068;2024-01-30T05:23:44;1.60;99.90
4874;DHT22;2451;49.970;9.068;2024-01-30T05:26:10;1.70;99.90
4874;DHT22;2451;49.970;9.068;2024-01-30T05:28:35;1.70;99.90
4874;DHT22;2451;49.970;9.068;2024-01-30T05:31:01;1.70;99.90
4874;DHT22;2451;49.970;9.068;2024-01-30T05:33:28;1.70;99.90
4874;DHT22;2451;49.970;9.068;2024-01-30T05:35:53;1.70;99.90
4874;DHT22;2451;49.970;9.068;2024-01-30T05:38:20;1.70;99.90
4874;DHT22;2451;49.970;9.068;2024-01-30T05:40:45;1.70;99.90
4874;DHT22;2451;49.970;9.068;2024-01-30T05:43:11;1.70;99.90
4874;DHT22;2451;49.970;9.068;2024-01-30T05:45:44;1.70;99.90
4874;DHT22;2451;49.970;9.068;2024-01-30T05:48:10;1.70;99.90
4874;DHT22;2451;49.970;9.068;2024-01-30T05:50:35;1.70;99.90
4874;DHT22;2451;49.970;9.068;2024-01-30T05:53:01;1.70;99.90
4874;DHT22;2451;49.970;9.068;2024-01-30T05:55:26;1.70;99.90
4874;DHT22;2451;49.970;9.068;2024-01-30T05:57:52;1.70;99.90
4874;DHT22;2451;49.970;9.068;2024-01-30T06:00:18;1.70;99.90
4874;DHT22;2451;49.970;9.068;2024-01-30T06:02:44;1.70;99.90
4874;DHT22;2451;49.970;9.068;2024-01-30T06:05:09;1.60;99.90
4874;DHT22;2451;49.970;9.068;2024-01-30T06:07:35;1.70;99.90
4874;DHT22;2451;49.970;9.068;2024-01-30T06:10:00;1.60;99.90
4874;DHT22;2451;49.970;9.068;2024-01-30T06:12:27;1.60;99.90
4874;DHT22;2451;49.970;9.068;2024-01-30T06:14:53;1.60;99.90
4874;DHT22;2451;49.970;9.068;2024-01-30T06:17:25;1.60;99.90
4874;DHT22;2451;49.970;9.068;2024-01-30T06:19:50;1.60;99.90
4874;DHT22;2451;49.970;9.068;2024-01-30T06:22:16;1.60;99.90
4874;DHT22;2451;49.970;9.068;2024-01-30T06:24:42;1.60;99.90
4874;DHT22;2451;49.970;9.068;2024-01-30T06:27:10;1.70;99.90
4874;DHT22;2451;49.970;9.068;2024-01-30T06:29:35;1.70;99.90
4874;DHT22;2451;49.970;9.068;2024-01-30T06:32:01;1.70;99.90
4874;DHT22;2451;49.970;9.068;2024-01-30T06:34:26;1.70;99.90
4874;DHT22;2451;49.970;9.068;2024-01-30T06:36:52;1.70;99.90
4874;DHT22;2451;49.970;9.068;2024-01-30T06:39:18;1.70;99.90
4874;DHT22;2451;49.970;9.068;2024-01-30T06:41:44;1.60;99.90
4874;DHT22;2451;49.970;9.068;2024-01-30T06:44:12;1.60;99.90
4874;DHT22;2451;49.970;9.068;2024-01-30T06:46:37;1.60;99.90
4874;DHT22;2451;49.970;9.068;2024-01-30T06:49:03;1.60;99.90
4874;DHT22;2451;49.970;9.068;2024-01-30T06:51:29;1.60;99.90
4874;DHT22;2451;49.970;9.068;2024-01-30T06:53:54;1.60;99.90
4874;DHT22;2451;49.970;9.068;2024-01-30T06:56:20;1.60;99.90
4874;DHT22;2451;49.970;9.068;2024-01-30T06:58:49;1.50;99.90
4874;DHT22;2451;49.970;9.068;2024-01-30T07:01:15;1.50;99.90
4874;DHT22;2451;49.970;9.068;2024-01-30T07:03:41;1.50;99.90
4874;DHT22;2451;49.970;9.068;2024-01-30T07:06:07;1.50;99.90
4874;DHT22;2451;49.970;9.068;2024-01-30T07:08:33;1.50;99.90
4874;DHT22;2451;49.970;9.068;2024-01-30T07:10:58;1.50;99.90
4874;DHT22;2451;49.970;9.068;2024-01-30T07:13:27;1.60;99.90
4874;DHT22;2451;49.970;9.068;2024-01-30T07:15:54;1.60;99.90
4874;DHT22;2451;49.970;9.068;2024-01-30T07:18:19;1.50;99.90
4874;DHT22;2451;49.970;9.068;2024-01-30T07:20:45;1.60;99.90
4874;DHT22;2451;49.970;9.068;2024-01-30T07:23:15;1.60;99.90
4874;DHT22;2451;49.970;9.068;2024-01-30T07:25:44;1.60;99.90
4874;DHT22;2451;49.970;9.068;2024-01-30T07:28:10;1.60;99.90
4874;DHT22;2451;49.970;9.068;2024-01-30T07:30:36;1.60;99.90
4874;DHT22;2451;49.970;9.068;2024-01-30T07:33:02;1.70;99.90
4874;DHT22;2451;49.970;9.068;2024-01-30T07:35:27;1.70;99.90
4874;DHT22;2451;49.970;9.068;2024-01-30T07:37:53;1.80;99.90
4874;DHT22;2451;49.970;9.068;2024-01-30T07:40:19;1.80;99.90
4874;DHT22;2451;49.970;9.068;2024-01-30T07:42:44;1.90;99.90
4874;DHT22;2451;49.970;9.068;2024-01-30T07:45:10;1.90;99.90
4874;DHT22;2451;49.970;9.068;2024-01-30T07:47:35;1.90;99.90
4874;DHT22;2451;49.970;9.068;2024-01-30T07:50:01;2.10;99.90
4874;DHT22;2451;49.970;9.068;2024-01-30T07:52:26;2.20;99.90
4874;DHT22;2451;49.970;9.068;2024-01-30T07:54:52;2.40;99.90
4874;DHT22;2451;49.970;9.068;2024-01-30T07:57:18;2.50;99.90
4874;DHT22;2451;49.970;9.068;2024-01-30T07:59:44;2.50;99.90
4874;DHT22;2451;49.970;9.068;2024-01-30T08:02:11;2.50;99.90
4874;DHT22;2451;49.970;9.068;2024-01-30T08:04:37;2.40;99.90
4874;DHT22;2451;49.970;9.068;2024-01-30T08:07:03;2.40;99.90
4874;DHT22;2451;49.970;9.068;2024-01-30T08:09:28;2.40;99.90
4874;DHT22;2451;49.970;9.068;2024-01-30T08:11:54;2.40;99.90
4874;DHT22;2451;49.970;9.068;2024-01-30T08:14:19;2.50;99.90
4874;DHT22;2451;49.970;9.068;2024-01-30T08:16:45;2.50;99.90
4874;DHT22;2451;49.970;9.068;2024-01-30T08:19:11;2.50;99.90
4874;DHT22;2451;49.970;9.068;2024-01-30T08:21:36;2.50;99.90
4874;DHT22;2451;49.970;9.068;2024-01-30T08:24:04;2.50;99.90
4874;DHT22;2451;49.970;9.068;2024-01-30T08:26:30;2.60;99.90
4874;DHT22;2451;49.970;9.068;2024-01-30T08:28:58;2.70;99.90
4874;DHT22;2451;49.970;9.068;2024-01-30T08:31:27;2.80;99.90
4874;DHT22;2451;49.970;9.068;2024-01-30T08:33:52;2.80;99.90
4874;DHT22;2451;49.970;9.068;2024-01-30T08:36:18;2.90;99.90
4874;DHT22;2451;49.970;9.068;2024-01-30T08:38:43;3.00;99.90
4874;DHT22;2451;49.970;9.068;2024-01-30T08:41:12;3.10;99.90
4874;DHT22;2451;49.970;9.068;2024-01-30T08:43:39;3.10;99.90
4874;DHT22;2451;49.970;9.068;2024-01-30T08:46:04;3.20;99.90
4874;DHT22;2451;49.970;9.068;2024-01-30T08:48:30;3.30;99.90
4874;DHT22;2451;49.970;9.068;2024-01-30T08:50:58;3.30;99.90
4874;DHT22;2451;49.970;9.068;2024-01-30T08:53:23;3.40;99.90
4874;DHT22;2451;49.970;9.068;2024-01-30T08:55:50;3.40;99.90
4874;DHT22;2451;49.970;9.068;2024-01-30T08:58:16;3.40;99.90
4874;DHT22;2451;49.970;9.068;2024-01-30T09:00:44;3.40;99.90
4874;DHT22;2451;49.970;9.068;2024-01-30T09:03:10;3.50;99.90
4874;DHT22;2451;49.970;9.068;2024-01-30T09:05:35;3.50;99.90
4874;DHT22;2451;49.970;9.068;2024-01-30T09:08:01;3.50;99.90
4874;DHT22;2451;49.970;9.068;2024-01-30T09:10:26;3.50;99.90
4874;DHT22;2451;49.970;9.068;2024-01-30T09:12:52;3.50;99.90
4874;DHT22;2451;49.970;9.068;2024-01-30T09:15:18;3.60;99.90
4874;DHT22;2451;49.970;9.068;2024-01-30T09:17:44;3.60;99.90
4874;DHT22;2451;49.970;9.068;2024-01-30T09:20:10;3.70;99.90
4874;DHT22;2451;49.970;9.068;2024-01-30T09:22:36;3.80;99.90
4874;DHT22;2451;49.970;9.068;2024-01-30T09:25:02;3.90;99.90
4874;DHT22;2451;49.970;9.068;2024-01-30T09:27:27;3.90;99.90
4874;DHT22;2451;49.970;9.068;2024-01-30T09:29:53;4.00;99.90
4874;DHT22;2451;49.970;9.068;2024-01-30T09:32:18;4.10;99.90
4874;DHT22;2451;49.970;9.068;2024-01-30T09:34:44;4.10;99.90
4874;DHT22;2451;49.970;9.068;2024-01-30T09:37:09;4.20;99.90
4874;DHT22;2451;49.970;9.068;2024-01-30T09:39:35;4.30;99.90
4874;DHT22;2451;49.970;9.068;2024-01-30T09:44:40;4.50;99.90
4874;DHT22;2451;49.970;9.068;2024-01-30T09:47:08;4.50;99.90
4874;DHT22;2451;49.970;9.068;2024-01-30T09:49:34;4.70;99.90
4874;DHT22;2451;49.970;9.068;2024-01-30T09:52:02;4.70;99.90
4874;DHT22;2451;49.970;9.068;2024-01-30T09:54:30;4.80;99.90
4874;DHT22;2451;49.970;9.068;2024-01-30T09:56:56;4.90;99.90
4874;DHT22;2451;49.970;9.068;2024-01-30T09:59:22;5.00;99.90
4874;DHT22;2451;49.970;9.068;2024-01-30T10:01:48;5.00;99.90
4874;DHT22;2451;49.970;9.068;2024-01-30T10:04:14;5.10;99.90
4874;DHT22;2451;49.970;9.068;2024-01-30T10:06:40;5.00;99.90
4874;DHT22;2451;49.970;9.068;2024-01-30T10:09:05;5.10;99.90
4874;DHT22;2451;49.970;9.068;2024-01-30T10:11:31;5.20;99.90
4874;DHT22;2451;49.970;9.068;2024-01-30T10:13:57;5.20;99.90
4874;DHT22;2451;49.970;9.068;2024-01-30T10:16:22;5.30;99.90
4874;DHT22;2451;49.970;9.068;2024-01-30T10:18:49;5.40;99.90
4874;DHT22;2451;49.970;9.068;2024-01-30T10:21:14;5.40;99.90
4874;DHT22;2451;49.970;9.068;2024-01-30T10:23:40;5.50;99.90
4874;DHT22;2451;49.970;9.068;2024-01-30T10:26:07;5.60;99.90
4874;DHT22;2451;49.970;9.068;2024-01-30T10:28:33;5.80;99.90
4874;DHT22;2451;49.970;9.068;2024-01-30T10:30:59;6.00;99.90
4874;DHT22;2451;49.970;9.068;2024-01-30T10:33:28;6.20;99.90
4874;DHT22;2451;49.970;9.068;2024-01-30T10:36:01;6.30;99.90
4874;DHT22;2451;49.970;9.068;2024-01-30T10:38:29;6.40;99.90
4874;DHT22;2451;49.970;9.068;2024-01-30T10:41:01;6.50;99.90
4874;DHT22;2451;49.970;9.068;2024-01-30T10:43:40;6.50;99.90
4874;DHT22;2451;49.970;9.068;2024-01-30T10:46:19;6.60;99.90
4874;DHT22;2451;49.970;9.068;2024-01-30T10:48:50;6.50;99.90
4874;DHT22;2451;49.970;9.068;2024-01-30T10:51:22;6.50;99.90
4874;DHT22;2451;49.970;9.068;2024-01-30T10:53:49;6.50;99.90
4874;DHT22;2451;49.970;9.068;2024-01-30T10:56:16;6.50;99.90
4874;DHT22;2451;49.970;9.068;2024-01-30T10:58:41;6.50;99.90
4874;DHT22;2451;49.970;9.068;2024-01-30T11:01:07;6.60;99.90
4874;DHT22;2451;49.970;9.068;2024-01-30T11:03:34;6.70;99.90
4874;DHT22;2451;49.970;9.068;2024-01-30T11:06:02;6.70;99.90
4874;DHT22;2451;49.970;9.068;2024-01-30T11:08:31;6.80;99.90
4874;DHT22;2451;49.970;9.068;2024-01-30T11:10:58;6.80;99.90
4874;DHT22;2451;49.970;9.068;2024-01-30T11:13:30;6.90;99.90
4874;DHT22;2451;49.970;9.068;2024-01-30T11:16:00;6.90;99.90
4874;DHT22;2451;49.970;9.068;2024-01-30T11:18:29;7.00;99.90
4874;DHT22;2451;49.970;9.068;2024-01-30T11:21:07;7.00;99.90
4874;DHT22;2451;49.970;9.068;2024-01-30T11:23:34;7.00;99.90
4874;DHT22;2451;49.970;9.068;2024-01-30T11:26:00;7.10;99.90
4874;DHT22;2451;49.970;9.068;2024-01-30T11:28:32;7.30;99.90
4874;DHT22;2451;49.970;9.068;2024-01-30T11:31:05;7.50;99.90
4874;DHT22;2451;49.970;9.068;2024-01-30T11:33:32;7.60;99.90
4874;DHT22;2451;49.970;9.068;2024-01-30T11:35:59;7.80;99.90
4874;DHT22;2451;49.970;9.068;2024-01-30T11:38:26;7.90;99.90
4874;DHT22;2451;49.970;9.068;2024-01-30T11:40:56;8.00;99.90
4874;DHT22;2451;49.970;9.068;2024-01-30T11:43:24;8.30;99.90
4874;DHT22;2451;49.970;9.068;2024-01-30T11:45:50;8.50;99.90
4874;DHT22;2451;49.970;9.068;2024-01-30T11:48:19;8.60;99.90
4874;DHT22;2451;49.970;9.068;2024-01-30T11:50:44;8.70;99.90
4874;DHT22;2451;49.970;9.068;2024-01-30T11:53:10;8.90;99.90
4874;DHT22;2451;49.970;9.068;2024-01-30T11:55:36;8.90;99.90
4874;DHT22;2451;49.970;9.068;2024-01-30T11:58:03;9.10;99.90
4874;DHT22;2451;49.970;9.068;2024-01-30T12:00:29;9.50;99.90
4874;DHT22;2451;49.970;9.068;2024-01-30T12:02:56;10.00;99.90
4874;DHT22;2451;49.970;9.068;2024-01-30T12:05:23;10.40;99.90
4874;DHT22;2451;49.970;9.068;2024-01-30T12:07:49;10.60;99.90
4874;DHT22;2451;49.970;9.068;2024-01-30T12:10:14;10.80;99.90
4874;DHT22;2451;49.970;9.068;2024-01-30T12:12:47;11.10;99.90
4874;DHT22;2451;49.970;9.068;2024-01-30T12:15:13;11.50;99.90
4874;DHT22;2451;49.970;9.068;2024-01-30T12:17:40;11.80;99.90
4874;DHT22;2451;49.970;9.068;2024-01-30T12:20:06;12.10;99.90
4874;DHT22;2451;49.970;9.068;2024-01-30T12:25:02;12.70;99.90
4874;DHT22;2451;49.970;9.068;2024-01-30T12:27:29;12.90;99.90
4874;DHT22;2451;49.970;9.068;2024-01-30T12:29:58;12.90;99.90
4874;DHT22;2451;49.970;9.068;2024-01-30T12:32:23;12.90;99.90
4874;DHT22;2451;49.970;9.068;2024-01-30T12:34:49;12.70;99.90
4874;DHT22;2451;49.970;9.068;2024-01-30T12:37:15;12.40;99.90
4874;DHT22;2451;49.970;9.068;2024-01-30T12:39:46;12.20;99.90
4874;DHT22;2451;49.970;9.068;2024-01-30T12:42:13;12.00;99.90
4874;DHT22;2451;49.970;9.068;2024-01-30T12:44:39;11.90;99.90
4874;DHT22;2451;49.970;9.068;2024-01-30T12:47:05;11.80;99.90
4874;DHT22;2451;49.970;9.068;2024-01-30T12:49:31;11.80;99.90
4874;DHT22;2451;49.970;9.068;2024-01-30T12:52:00;11.80;99.90
4874;DHT22;2451;49.970;9.068;2024-01-30T12:54:25;11.80;99.90
4874;DHT22;2451;49.970;9.068;2024-01-30T12:56:51;11.80;99.90
4874;DHT22;2451;49.970;9.068;2024-01-30T12:59:16;11.80;99.90
4874;DHT22;2451;49.970;9.068;2024-01-30T13:01:42;11.90;99.90
4874;DHT22;2451;49.970;9.068;2024-01-30T13:04:08;12.00;99.90
4874;DHT22;2451;49.970;9.068;2024-01-30T13:06:34;12.10;99.90
4874;DHT22;2451;49.970;9.068;2024-01-30T13:08:59;12.30;99.90
4874;DHT22;2451;49.970;9.068;2024-01-30T13:11:25;12.60;99.90
4874;DHT22;2451;49.970;9.068;2024-01-30T13:13:51;12.70;99.90
4874;DHT22;2451;49.970;9.068;2024-01-30T13:16:17;12.80;99.90
4874;DHT22;2451;49.970;9.068;2024-01-30T13:18:43;12.90;99.90
4874;DHT22;2451;49.970;9.068;2024-01-30T13:21:09;13.10;99.90
4874;DHT22;2451;49.970;9.068;2024-01-30T13:23:35;13.20;99.90
4874;DHT22;2451;49.970;9.068;2024-01-30T13:26:00;13.30;99.90
4874;DHT22;2451;49.970;9.068;2024-01-30T13:28:26;13.30;99.90
4874;DHT22;2451;49.970;9.068;2024-01-30T13:30:52;13.10;99.90
4874;DHT22;2451;49.970;9.068;2024-01-30T13:33:20;12.90;99.90
4874;DHT22;2451;49.970;9.068;2024-01-30T13:35:45;12.60;99.90
4874;DHT22;2451;49.970;9.068;2024-01-30T13:38:11;12.40;99.90
4874;DHT22;2451;49.970;9.068;2024-01-30T13:40:37;12.30;99.90
4874;DHT22;2451;49.970;9.068;2024-01-30T13:43:02;12.10;99.90
4874;DHT22;2451;49.970;9.068;2024-01-30T13:45:28;12.00;99.90
4874;DHT22;2451;49.970;9.068;2024-01-30T13:47:54;11.90;99.90
4874;DHT22;2451;49.970;9.068;2024-01-30T13:50:19;11.90;99.90
4874;DHT22;2451;49.970;9.068;2024-01-30T13:52:45;11.90;99.90
4874;DHT22;2451;49.970;9.068;2024-01-30T13:55:11;11.90;99.90
4874;DHT22;2451;49.970;9.068;2024-01-30T13:57:37;11.90;99.90
4874;DHT22;2451;49.970;9.068;2024-01-30T14:00:03;11.80;99.90
4874;DHT22;2451;49.970;9.068;2024-01-30T14:02:32;11.70;99.90
4874;DHT22;2451;49.970;9.068;2024-01-30T14:04:57;11.60;99.90
4874;DHT22;2451;49.970;9.068;2024-01-30T14:07:23;11.60;99.90
4874;DHT22;2451;49.970;9.068;2024-01-30T14:09:55;11.50;99.90
4874;DHT22;2451;49.970;9.068;2024-01-30T14:12:21;11.50;99.90
4874;DHT22;2451;49.970;9.068;2024-01-30T14:14:47;11.40;99.90
4874;DHT22;2451;49.970;9.068;2024-01-30T14:17:12;11.30;99.90
4874;DHT22;2451;49.970;9.068;2024-01-30T14:19:38;11.30;99.90
4874;DHT22;2451;49.970;9.068;2024-01-30T14:22:04;11.20;99.90
4874;DHT22;2451;49.970;9.068;2024-01-30T14:24:29;11.20;99.90
4874;DHT22;2451;49.970;9.068;2024-01-30T14:26:55;11.10;99.90
4874;DHT22;2451;49.970;9.068;2024-01-30T14:29:21;11.10;99.90
4874;DHT22;2451;49.970;9.068;2024-01-30T14:31:46;11.10;99.90
4874;DHT22;2451;49.970;9.068;2024-01-30T14:34:12;11.10;99.90
4874;DHT22;2451;49.970;9.068;2024-01-30T14:36:38;11.10;99.90
4874;DHT22;2451;49.970;9.068;2024-01-30T14:39:04;11.10;99.90
4874;DHT22;2451;49.970;9.068;2024-01-30T14:41:32;11.10;99.90
4874;DHT22;2451;49.970;9.068;2024-01-30T14:43:57;11.10;99.90
4874;DHT22;2451;49.970;9.068;2024-01-30T14:46:23;11.10;99.90
4874;DHT22;2451;49.970;9.068;2024-01-30T14:48:49;11.10;99.90
4874;DHT22;2451;49.970;9.068;2024-01-30T14:51:16;11.10;99.90
4874;DHT22;2451;49.970;9.068;2024-01-30T14:53:43;11.10;99.90
4874;DHT22;2451;49.970;9.068;2024-01-30T14:56:09;11.10;99.90
4874;DHT22;2451;49.970;9.068;2024-01-30T14:58:35;11.10;99.90
4874;DHT22;2451;49.970;9.068;2024-01-30T15:01:01;11.00;99.90
4874;DHT22;2451;49.970;9.068;2024-01-30T15:03:27;11.00;99.90
4874;DHT22;2451;49.970;9.068;2024-01-30T15:05:56;11.00;99.90
4874;DHT22;2451;49.970;9.068;2024-01-30T15:08:22;10.90;99.90
4874;DHT22;2451;49.970;9.068;2024-01-30T15:10:47;10.90;99.90
4874;DHT22;2451;49.970;9.068;2024-01-30T15:13:13;10.90;99.90
4874;DHT22;2451;49.970;9.068;2024-01-30T15:15:38;10.90;99.90
4874;DHT22;2451;49.970;9.068;2024-01-30T15:18:04;10.80;99.90
4874;DHT22;2451;49.970;9.068;2024-01-30T15:20:30;10.80;99.90
4874;DHT22;2451;49.970;9.068;2024-01-30T15:22:57;10.70;99.90
4874;DHT22;2451;49.970;9.068;2024-01-30T15:25:25;10.70;99.90
4874;DHT22;2451;49.970;9.068;2024-01-30T15:27:51;10.60;99.90
4874;DHT22;2451;49.970;9.068;2024-01-30T15:30:16;10.50;99.90
4874;DHT22;2451;49.970;9.068;2024-01-30T15:32:43;10.50;99.90
4874;DHT22;2451;49.970;9.068;2024-01-30T15:35:11;10.40;99.90
4874;DHT22;2451;49.970;9.068;2024-01-30T15:37:38;10.40;99.90
4874;DHT22;2451;49.970;9.068;2024-01-30T15:40:03;10.20;99.90
4874;DHT22;2451;49.970;9.068;2024-01-30T15:42:32;10.20;99.90
4874;DHT22;2451;49.970;9.068;2024-01-30T15:44:57;10.10;99.90
4874;DHT22;2451;49.970;9.068;2024-01-30T15:47:24;10.10;99.90
4874;DHT22;2451;49.970;9.068;2024-01-30T15:49:50;10.00;99.90
4874;DHT22;2451;49.970;9.068;2024-01-30T15:52:15;10.00;99.90
4874;DHT22;2451;49.970;9.068;2024-01-30T15:54:43;9.90;99.90
4874;DHT22;2451;49.970;9.068;2024-01-30T15:57:12;9.80;99.90
4874;DHT22;2451;49.970;9.068;2024-01-30T15:59:37;9.80;99.90
4874;DHT22;2451;49.970;9.068;2024-01-30T16:02:03;9.80;99.90
4874;DHT22;2451;49.970;9.068;2024-01-30T16:04:29;9.70;99.90
4874;DHT22;2451;49.970;9.068;2024-01-30T16:06:54;9.60;99.90
4874;DHT22;2451;49.970;9.068;2024-01-30T16:09:23;9.60;99.90
4874;DHT22;2451;49.970;9.068;2024-01-30T16:11:51;9.50;99.90
4874;DHT22;2451;49.970;9.068;2024-01-30T16:14:16;9.50;99.90